Time;durP1;ratioP1;P1;durP2;ratioP2;P2;SDS_P1;SDS_P2;PMS_P1;PMS_P2;Temp;Humidity;BMP_temperature;BMP_pressure;BME280_temperature;BME280_humidity;BME280_pressure;Samples;Min_cycle;Max_cycle;Signal;HPM_P1;HPM_P2
2022/01/25 07:59:23;;;;;;;71.45;45.00;;;;;;;4.21;77.72;103246.59;5242651;27;1182667;-73
2022/01/25 08:01:55;;;;;;;72.00;47.13;;;;;;;4.16;77.76;103250.97;5247891;28;20030;-73
2022/01/25 08:04:27;;;;;;;68.40;44.50;;;;;;;4.16;77.65;103238.06;5237703;28;20037;-72
2022/01/25 08:06:58;;;;;;;70.40;46.13;;;;;;;4.22;77.51;103247.44;5238044;28;20369;-73
2022/01/25 08:09:29;;;;;;;70.18;46.60;;;;;;;4.22;77.72;103247.44;5246516;28;20447;-72
2022/01/25 08:12:00;;;;;;;67.22;44.97;;;;;;;4.28;77.30;103253.06;5245397;28;20548;-72
2022/01/25 08:14:32;;;;;;;65.95;44.15;;;;;;;4.33;76.83;103249.75;5258716;28;20062;-72
2022/01/25 08:17:03;;;;;;;65.78;45.03;;;;;;;4.38;76.88;103240.94;5256437;28;20447;-72
2022/01/25 08:19:35;;;;;;;67.07;43.88;;;;;;;4.38;76.35;103240.94;5243754;28;20053;-72
2022/01/25 08:22:06;;;;;;;67.80;45.28;;;;;;;4.38;76.62;103251.94;5238229;28;20049;-72
2022/01/25 08:24:37;;;;;;;68.45;44.78;;;;;;;4.41;76.61;103251.53;5237523;28;20067;-71
2022/01/25 08:27:08;;;;;;;66.90;42.90;;;;;;;4.53;77.50;103263.78;5256393;28;20029;-71
2022/01/25 08:29:40;;;;;;;68.60;47.42;;;;;;;4.62;78.78;103261.75;5258780;28;20031;-71
2022/01/25 08:32:11;;;;;;;74.63;47.95;;;;;;;4.58;76.54;103258.56;5257941;28;20040;-72
2022/01/25 08:34:42;;;;;;;68.45;46.47;;;;;;;4.41;76.41;103265.28;5255172;28;20075;-72
2022/01/25 08:37:14;;;;;;;70.22;47.45;;;;;;;4.55;76.72;103264.41;5255795;28;20447;-72
2022/01/25 08:39:46;;;;;;;70.78;47.83;;;;;;;4.57;76.17;103256.84;5258208;28;20064;-72
2022/01/25 08:42:17;;;;;;;73.55;49.13;;;;;;;4.55;76.49;103258.91;5240395;28;20453;-72
2022/01/25 08:44:49;;;;;;;74.07;49.63;;;;;;;4.45;77.08;103258.34;5245347;28;20025;-72
2022/01/25 08:47:20;;;;;;;71.53;49.00;;;;;;;4.62;76.38;103261.75;5246449;28;20264;-72
2022/01/25 08:49:51;;;;;;;74.60;48.58;;;;;;;4.59;76.28;103265.75;5256984;28;20469;-73
2022/01/25 08:52:23;;;;;;;74.20;49.20;;;;;;;4.58;76.31;103267.66;5249418;28;20030;-73
2022/01/25 08:54:55;;;;;;;79.63;51.80;;;;;;;4.59;76.44;103268.50;5237538;28;20026;-72
2022/01/25 08:57:26;;;;;;;73.15;49.90;;;;;;;4.62;76.11;103270.84;5250507;28;20063;-72
2022/01/25 08:59:58;;;;;;;71.88;49.70;;;;;;;4.58;76.18;103269.56;5257794;28;20108;-72
2022/01/25 09:02:29;;;;;;;73.63;48.47;;;;;;;4.66;75.99;103274.09;5250727;28;20026;-71
2022/01/25 09:05:00;;;;;;;73.18;49.85;;;;;;;4.62;75.73;103270.00;5245003;28;20038;-74
2022/01/25 09:07:32;;;;;;;75.65;51.17;;;;;;;4.67;75.92;103273.88;5244339;28;20354;-74
2022/01/25 09:10:04;;;;;;;75.32;52.00;;;;;;;4.65;76.16;103272.38;5232985;28;20117;-74
2022/01/25 09:12:36;;;;;;;75.13;49.85;;;;;;;4.62;76.11;103273.59;5223460;28;20037;-74
2022/01/25 09:15:07;;;;;;;81.50;54.22;;;;;;;4.73;76.40;103270.38;5222691;28;20454;-74
2022/01/25 09:17:39;;;;;;;86.65;59.00;;;;;;;4.78;75.65;103276.16;5222657;28;20509;-74
2022/01/25 09:20:10;;;;;;;87.80;60.47;;;;;;;4.79;75.32;103277.84;5235277;28;20039;-73
2022/01/25 09:22:42;;;;;;;86.13;58.05;;;;;;;4.67;75.62;103273.03;5243122;28;20461;-72
2022/01/25 09:25:14;;;;;;;87.93;59.00;;;;;;;4.68;75.47;103275.59;5244159;28;20389;-75
2022/01/25 09:27:45;;;;;;;88.40;60.38;;;;;;;4.64;75.39;103273.44;5237071;28;20016;-74
2022/01/25 09:30:17;;;;;;;85.82;59.10;;;;;;;4.61;75.58;103280.16;5242849;28;20053;-73
2022/01/25 09:32:48;;;;;;;85.65;57.28;;;;;;;4.60;75.60;103283.94;5264765;28;20144;-73
2022/01/25 09:35:20;;;;;;;86.43;56.05;;;;;;;4.70;76.43;103279.00;5232460;28;20026;-73
2022/01/25 09:37:51;;;;;;;92.05;61.30;;;;;;;4.71;75.78;103279.88;5223039;28;20064;-73
2022/01/25 09:40:23;;;;;;;92.93;61.08;;;;;;;4.64;75.82;103279.78;5222518;28;20033;-73
2022/01/25 09:42:57;;;;;;;88.60;58.95;;;;;;;4.70;75.57;103281.75;5224790;28;20025;-73
2022/01/25 09:45:29;;;;;;;92.75;62.65;;;;;;;4.72;76.12;103287.91;5243681;28;20032;-75
2022/01/25 09:48:00;;;;;;;96.88;63.70;;;;;;;4.78;75.68;103287.16;5209487;28;20026;-73
2022/01/25 09:50:32;;;;;;;92.95;62.97;;;;;;;4.70;75.19;103290.00;5232416;28;20117;-74
2022/01/25 09:53:05;;;;;;;88.15;62.05;;;;;;;4.77;74.93;103287.34;5222016;28;20536;-74
2022/01/25 09:55:40;;;;;;;96.05;63.28;;;;;;;4.73;75.44;103295.13;5238635;28;20137;-74
2022/01/25 09:58:13;;;;;;;91.93;63.45;;;;;;;4.75;75.25;103297.66;5234157;28;20519;-74
2022/01/25 10:00:46;;;;;;;92.93;64.65;;;;;;;4.67;75.36;103295.03;5232327;28;20022;-72
2022/01/25 10:03:26;;;;;;;87.75;59.60;;;;;;;4.62;75.11;103292.84;5221181;28;20018;-71
2022/01/25 10:06:00;;;;;;;91.75;60.33;;;;;;;4.76;75.44;103299.41;5221685;28;20088;-73
2022/01/25 10:08:37;;;;;;;89.03;58.67;;;;;;;4.77;74.98;103295.59;5222230;28;20033;-74
2022/01/25 10:11:11;;;;;;;86.53;59.22;;;;;;;4.92;74.31;103298.31;5221870;28;20273;-73
2022/01/25 10:13:49;;;;;;;83.93;56.75;;;;;;;4.89;74.01;103298.72;5222255;28;20109;-81
2022/01/25 10:16:30;;;;;;;89.45;58.83;;;;;;;4.99;74.00;103293.78;5224742;28;20401;-72
2022/01/25 10:19:11;;;;;;;86.88;57.47;;;;;;;5.06;73.72;103299.34;5225104;28;20037;-72
2022/01/25 10:21:48;;;;;;;87.38;59.50;;;;;;;5.11;73.94;103291.34;5235480;28;20025;-72
2022/01/25 10:24:24;;;;;;;83.60;56.55;;;;;;;5.14;73.26;103301.97;5240831;28;20021;-72
2022/01/25 10:26:58;;;;;;;83.15;58.03;;;;;;;5.04;73.35;103299.53;5241724;28;20507;-73
2022/01/25 10:29:34;;;;;;;89.30;59.20;;;;;;;5.18;73.71;103297.78;5241553;28;20464;-72
2022/01/25 10:32:13;;;;;;;92.68;61.05;;;;;;;5.11;73.81;103305.09;5227382;28;20416;-72
2022/01/25 10:34:49;;;;;;;90.97;59.67;;;;;;;5.16;73.55;103292.47;5226297;28;20051;-72
2022/01/25 10:37:28;;;;;;;83.57;58.13;;;;;;;5.10;72.96;103290.50;5225732;28;20638;-71
2022/01/25 10:39:59;;;;;;;92.70;60.35;;;;;;;5.03;72.61;103294.22;5219004;28;20021;-72
2022/01/25 10:42:33;;;;;;;88.00;60.28;;;;;;;4.88;72.35;103294.25;5221882;28;20044;-71
2022/01/25 10:45:09;;;;;;;83.55;57.13;;;;;;;4.91;73.08;103293.84;5260254;28;20675;-72
2022/01/25 10:47:40;;;;;;;;;;;;;;;5.11;73.40;103297.69;5240924;28;20080;-71
2022/01/25 10:50:26;;;;;;;78.80;54.78;;;;;;;4.96;73.12;103299.63;5221925;28;20312;-72
2022/01/25 10:53:15;;;;;;;89.40;58.20;;;;;;;5.00;73.27;103289.97;5240579;28;20303;-72
2022/01/25 10:55:49;;;;;;;83.40;56.42;;;;;;;4.94;73.44;103291.59;5237357;28;20508;-73
2022/01/25 10:58:22;;;;;;;86.95;58.38;;;;;;;5.01;72.98;103295.28;5231030;28;20053;-71
2022/01/25 11:00:53;;;;;;;88.25;58.20;;;;;;;5.09;72.82;103288.81;5241360;28;20029;-72
2022/01/25 11:03:31;;;;;;;85.85;56.15;;;;;;;5.12;73.30;103288.41;5240352;28;20032;-72
2022/01/25 11:06:13;;;;;;;81.32;57.08;;;;;;;5.13;72.67;103287.38;5228403;28;20086;-71
2022/01/25 11:08:49;;;;;;;82.65;58.42;;;;;;;5.20;72.78;103288.28;5229498;28;20100;-71
2022/01/25 11:11:32;;;;;;;83.28;57.33;;;;;;;5.25;72.80;103286.88;5241451;28;20052;-71
2022/01/25 11:16:55;;;;;;;90.75;56.85;;;;;;;5.23;71.95;103285.16;5241666;28;20481;-71
2022/01/25 11:19:27;;;;;;;88.03;57.33;;;;;;;5.29;71.97;103293.69;5238684;28;20037;-71
2022/01/25 11:21:59;;;;;;;91.72;64.93;;;;;;;5.19;72.18;103296.72;5223868;28;20026;-72
2022/01/25 11:24:32;;;;;;;82.97;57.65;;;;;;;5.22;72.80;103297.22;5221320;28;20022;-72
2022/01/25 11:27:06;;;;;;;82.93;56.65;;;;;;;5.25;72.15;103289.63;5240262;28;20029;-72
2022/01/25 11:29:39;;;;;;;81.15;55.97;;;;;;;5.12;72.38;103296.69;5228267;28;20030;-72
2022/01/25 11:32:15;;;;;;;82.70;56.47;;;;;;;5.17;72.13;103296.94;5241026;28;20066;-72
2022/01/25 11:34:48;;;;;;;84.65;56.85;;;;;;;5.02;72.17;103293.38;5239870;28;20440;-71
2022/01/25 11:37:19;;;;;;;88.78;60.45;;;;;;;5.08;72.88;103291.75;5231372;28;20477;-71
2022/01/25 11:39:51;;;;;;;87.03;59.67;;;;;;;5.13;72.76;103290.13;5221079;28;20037;-71
2022/01/25 11:42:26;;;;;;;89.15;61.42;;;;;;;5.13;72.29;103289.28;5226518;28;20022;-72
2022/01/25 11:44:58;;;;;;;89.45;59.65;;;;;;;4.99;71.37;103291.03;5245997;28;20133;-72
2022/01/25 11:47:37;;;;;;;85.68;57.05;;;;;;;5.01;72.19;103291.66;5225344;28;20104;-71
2022/01/25 11:50:11;;;;;;;87.68;57.30;;;;;;;5.01;72.60;103292.53;5234663;28;20125;-70
2022/01/25 11:52:52;;;;;;;87.60;58.10;;;;;;;5.19;72.58;103288.47;5241399;28;20044;-70
2022/01/25 11:55:36;;;;;;;80.82;56.88;;;;;;;5.20;72.86;103295.72;5238549;28;20033;-71
2022/01/25 11:58:14;;;;;;;89.10;61.30;;;;;;;5.12;72.64;103290.31;5220690;28;20056;-71
2022/01/25 12:00:50;;;;;;;84.78;60.05;;;;;;;5.20;72.88;103285.53;5221052;28;20065;-71
2022/01/25 12:03:35;;;;;;;86.25;57.28;;;;;;;5.22;72.85;103280.72;5219799;28;20029;-71
2022/01/25 12:06:26;;;;;;;86.25;59.78;;;;;;;5.11;72.65;103283.09;5219587;28;20030;-71
2022/01/25 12:11:38;;;;;;;86.18;60.97;;;;;;;5.14;73.03;103274.44;5220650;28;20468;-72
2022/01/25 12:14:23;;;;;;;82.78;57.17;;;;;;;5.29;72.35;103271.66;5220722;28;20587;-71
2022/01/25 12:17:03;;;;;;;98.50;66.53;;;;;;;5.30;72.40;103274.22;5230497;28;20420;-71
2022/01/25 12:19:50;;;;;;;86.75;60.55;;;;;;;5.22;72.66;103272.47;5230200;28;20042;-71
2022/01/25 12:22:39;;;;;;;86.40;57.55;;;;;;;5.25;72.50;103273.13;5220609;28;20557;-73
2022/01/25 12:25:33;;;;;;;96.07;64.32;;;;;;;5.23;72.54;103279.66;5220374;28;20073;-72
2022/01/25 12:28:10;;;;;;;84.55;57.78;;;;;;;5.16;71.61;103272.38;5220301;28;20034;-72
2022/01/25 12:30:44;;;;;;;89.30;58.30;;;;;;;5.06;72.29;103269.91;5234782;28;20033;-72
2022/01/25 12:33:20;;;;;;;86.22;59.28;;;;;;;4.96;71.38;103266.63;5234235;28;20026;-71
2022/01/25 12:36:00;;;;;;;83.32;56.58;;;;;;;4.99;71.68;103271.78;5219907;28;20497;-73
2022/01/25 12:38:47;;;;;;;80.45;56.40;;;;;;;5.04;72.51;103258.28;5219599;28;20061;-70
2022/01/25 12:41:24;;;;;;;93.75;60.05;;;;;;;5.13;71.83;103259.84;5240844;28;20022;-71
2022/01/25 12:43:58;;;;;;;82.35;55.78;;;;;;;5.11;71.87;103253.69;5237565;28;20108;-76
2022/01/25 12:46:40;;;;;;;83.70;57.05;;;;;;;5.20;72.09;103257.19;5224181;28;20065;-75
2022/01/25 12:49:17;;;;;;;77.65;54.47;;;;;;;5.21;71.84;103253.38;5227666;28;20389;-73
2022/01/25 12:51:52;;;;;;;77.63;53.92;;;;;;;5.46;74.88;103256.59;5241697;28;20596;-69
2022/01/25 12:54:28;;;;;;;86.70;59.40;;;;;;;5.57;72.40;103249.72;5244098;28;20465;-73
2022/01/25 12:57:07;;;;;;;87.18;57.15;;;;;;;5.52;71.45;103255.84;5231338;28;20033;-71
2022/01/25 12:59:39;;;;;;;85.22;58.47;;;;;;;5.29;71.35;103244.16;5223081;28;20404;-74
2022/01/25 13:02:10;;;;;;;87.55;59.22;;;;;;;5.13;71.58;103235.09;5228168;28;20033;-73
2022/01/25 13:04:42;;;;;;;84.03;57.25;;;;;;;5.12;71.52;103236.16;5223958;28;20030;-73
2022/01/25 13:07:13;;;;;;;84.47;57.17;;;;;;;5.20;72.18;103236.03;5227439;28;20036;-72
2022/01/25 13:09:45;;;;;;;80.53;57.67;;;;;;;5.24;72.40;103225.50;5237754;28;20072;-73
2022/01/25 13:12:25;;;;;;;82.80;55.92;;;;;;;5.22;72.70;103227.59;5243516;28;20484;-72
2022/01/25 13:15:27;;;;;;;84.53;57.20;;;;;;;5.30;73.23;103221.94;5241872;28;20025;-74
2022/01/25 13:18:11;;;;;;;81.75;56.13;;;;;;;5.41;72.67;103217.81;5243750;28;20430;-73
2022/01/25 13:20:46;;;;;;;85.43;58.38;;;;;;;5.30;72.58;103215.59;5226535;28;20033;-73
2022/01/25 13:23:20;;;;;;;89.25;62.13;;;;;;;5.24;72.12;103211.75;5223030;28;20036;-72
2022/01/25 13:25:58;;;;;;;80.47;55.58;;;;;;;5.25;72.53;103212.59;5241684;28;20401;-74
2022/01/25 13:31:09;;;;;;;81.65;55.72;;;;;;;5.26;72.62;103214.28;5243293;28;20385;-74
2022/01/25 13:33:40;;;;;;;84.13;55.45;;;;;;;5.27;72.57;103202.25;5242787;28;20477;-75
2022/01/25 13:36:19;;;;;;;84.53;55.28;;;;;;;5.28;72.71;103206.69;5243471;28;20029;-75
2022/01/25 13:38:52;;;;;;;81.75;56.17;;;;;;;5.24;71.68;103206.25;5230954;28;20374;-74
2022/01/25 13:41:29;;;;;;;77.57;54.63;;;;;;;5.27;71.82;103203.09;5223013;28;20033;-75
2022/01/25 13:46:43;;;;;;;80.25;55.15;;;;;;;5.22;72.04;103197.31;5222687;28;20030;-73
2022/01/25 13:49:15;;;;;;;75.40;53.20;;;;;;;5.26;72.02;103192.28;5234648;28;20460;-74
2022/01/25 13:51:53;;;;;;;79.38;55.33;;;;;;;5.30;72.68;103190.84;5243308;28;20648;-72
2022/01/25 13:54:29;;;;;;;78.32;52.13;;;;;;;5.21;71.91;103190.09;5243640;28;20542;-73
2022/01/25 13:57:10;;;;;;;;;;;;;;;5.43;71.87;103196.47;5227713;28;20032;-72
2022/01/25 13:59:41;;;;;;;84.00;54.88;;;;;;;5.17;71.36;103189.66;5239419;28;19917;-74
2022/01/25 14:02:13;;;;;;;78.97;54.20;;;;;;;5.28;71.28;103198.44;5226830;28;20026;-72
2022/01/25 14:04:44;;;;;;;81.97;56.40;;;;;;;5.41;71.98;103198.56;5228288;28;20029;-76
2022/01/25 14:07:17;;;;;;;81.63;58.03;;;;;;;5.30;71.48;103201.84;5224459;28;20058;-73
2022/01/25 14:09:50;;;;;;;81.13;55.08;;;;;;;5.22;72.07;103198.16;5223608;28;20017;-73
2022/01/25 14:23:26;;;;;;;83.35;53.65;;;;;;;5.37;71.47;103200.84;5224107;28;20034;-73
2022/01/25 14:26:09;;;;;;;78.13;54.53;;;;;;;5.35;71.95;103204.84;5234948;28;20117;-73
2022/01/25 14:28:44;;;;;;;78.15;53.20;;;;;;;5.36;71.66;103201.03;5235176;28;20030;-73
2022/01/25 14:31:18;;;;;;;77.18;53.72;;;;;;;5.32;71.49;103200.59;5232812;28;20383;-72
2022/01/25 14:33:54;;;;;;;83.22;53.83;;;;;;;5.37;70.88;103200.00;5222451;28;20469;-72
2022/01/25 14:36:29;;;;;;;78.32;52.40;;;;;;;5.29;71.04;103194.63;5221925;28;20092;-73
2022/01/25 14:39:02;;;;;;;75.83;51.43;;;;;;;5.22;70.60;103189.91;5227430;28;20035;-73
2022/01/25 14:41:36;;;;;;;79.47;54.70;;;;;;;5.32;70.63;103188.75;5238756;28;20458;-75
2022/01/25 14:44:13;;;;;;;77.30;51.92;;;;;;;5.27;71.65;103188.50;5255211;28;20480;-74
2022/01/25 14:46:49;;;;;;;77.60;52.63;;;;;;;5.25;71.79;103187.81;5230091;28;20029;-75
2022/01/25 14:49:28;;;;;;;76.25;52.40;;;;;;;5.43;70.94;103177.19;5227043;28;20026;-75
2022/01/25 14:52:06;;;;;;;77.95;53.38;;;;;;;5.40;70.81;103181.19;5241374;28;20036;-74
2022/01/25 14:54:41;;;;;;;77.38;53.40;;;;;;;5.35;70.80;103182.84;5240610;28;20025;-78
2022/01/25 14:57:18;;;;;;;87.63;59.50;;;;;;;5.38;70.98;103176.94;5233982;28;20017;-77
2022/01/25 14:59:49;;;;;;;80.93;53.33;;;;;;;5.53;70.57;103171.34;5240760;28;20431;-78
2022/01/25 15:02:25;;;;;;;74.43;53.22;;;;;;;5.51;70.64;103167.94;5228998;28;20042;-74
2022/01/25 15:05:02;;;;;;;78.78;53.70;;;;;;;5.49;69.46;103170.03;5224945;28;20466;-74
2022/01/25 15:07:34;;;;;;;74.15;51.60;;;;;;;5.41;69.53;103176.53;5227308;28;20116;-73
2022/01/25 15:10:07;;;;;;;75.63;51.83;;;;;;;5.30;70.04;103172.41;5221738;28;20105;-74
2022/01/25 15:12:43;;;;;;;77.93;50.90;;;;;;;5.39;70.38;103164.88;5226286;28;20025;-75
2022/01/25 15:15:25;;;;;;;79.95;53.05;;;;;;;5.38;70.92;103168.69;5221721;28;20026;-74
2022/01/25 15:17:56;;;;;;;82.10;55.55;;;;;;;5.36;70.38;103165.28;5221255;28;20429;-74
2022/01/25 15:20:27;;;;;;;73.85;51.42;;;;;;;5.33;69.25;103174.78;5219950;28;20050;-73
2022/01/25 15:23:01;;;;;;;95.40;68.70;;;;;;;5.45;69.80;103169.59;5224248;28;20500;-73
2022/01/25 15:25:33;;;;;;;75.15;50.65;;;;;;;5.44;69.07;103177.00;5237069;28;20025;-73
2022/01/25 15:28:04;;;;;;;75.30;53.60;;;;;;;5.45;68.64;103170.44;5219906;28;20083;-73
2022/01/25 15:30:35;;;;;;;75.68;52.90;;;;;;;5.51;69.19;103171.53;5220769;28;20029;-72
2022/01/25 15:33:07;;;;;;;78.25;52.65;;;;;;;5.52;69.14;103172.38;5219810;28;20052;-73
2022/01/25 15:35:39;;;;;;;77.05;51.63;;;;;;;5.46;68.99;103176.78;5220674;28;20400;-73
2022/01/25 15:38:10;;;;;;;76.15;52.13;;;;;;;5.49;69.17;103178.28;5220842;28;20160;-73
2022/01/25 15:40:41;;;;;;;81.85;50.20;;;;;;;5.44;69.04;103182.50;5226428;28;20038;-73
2022/01/25 15:43:13;;;;;;;79.35;53.40;;;;;;;5.29;69.78;103189.13;5220747;28;20496;-74
2022/01/25 15:48:44;;;;;;;78.35;52.58;;;;;;;5.27;69.88;103194.84;5206904;28;20091;-75
2022/01/25 15:51:16;;;;;;;70.80;50.92;;;;;;;5.25;69.76;103185.91;5220606;28;20038;-73
2022/01/25 15:53:49;;;;;;;77.97;52.05;;;;;;;5.21;70.16;103190.94;5220410;28;20026;-75
2022/01/25 15:56:20;;;;;;;72.90;50.63;;;;;;;5.31;70.83;103195.28;5229170;28;20029;-75
2022/01/25 15:58:52;;;;;;;75.95;52.70;;;;;;;5.38;70.00;103187.94;5221194;28;20053;-75
2022/01/25 16:01:23;;;;;;;75.53;52.35;;;;;;;5.27;70.14;103194.00;5219919;28;20080;-76
2022/01/25 16:03:55;;;;;;;79.90;51.63;;;;;;;5.24;69.82;103186.97;5241486;28;20108;-74
2022/01/25 16:06:26;;;;;;;74.47;49.45;;;;;;;5.52;73.14;103188.91;5239182;28;20045;-69
2022/01/25 16:08:57;;;;;;;78.47;51.70;;;;;;;5.45;71.18;103184.19;5240490;28;20026;-76
2022/01/25 16:11:28;;;;;;;84.13;56.70;;;;;;;5.14;68.99;103181.81;5241240;28;20036;-80
2022/01/25 16:14:00;;;;;;;88.10;57.67;;;;;;;5.07;69.36;103180.03;5237519;28;20030;-77
2022/01/25 16:16:31;;;;;;;77.70;50.10;;;;;;;5.06;69.75;103178.31;5220443;28;20033;-74
2022/01/25 16:19:03;;;;;;;76.95;52.10;;;;;;;4.93;69.62;103184.53;5231891;28;20445;-77
2022/01/25 16:21:35;;;;;;;73.40;50.03;;;;;;;5.04;70.48;103178.53;5224827;28;20029;-77
2022/01/25 16:24:06;;;;;;;72.22;49.67;;;;;;;5.05;70.65;103180.22;5223527;28;20021;-78
2022/01/25 16:26:38;;;;;;;77.32;51.22;;;;;;;5.11;70.82;103175.81;5224681;28;20028;-79
2022/01/25 16:29:09;;;;;;;73.07;50.53;;;;;;;5.15;70.52;103178.00;5242636;28;20013;-79
2022/01/25 16:31:42;;;;;;;74.00;50.53;;;;;;;5.09;70.31;103183.41;5245026;28;20370;-78
2022/01/25 16:34:19;;;;;;;76.25;51.40;;;;;;;5.07;70.53;103191.03;5224645;28;20029;-79
2022/01/25 16:36:51;;;;;;;70.63;49.17;;;;;;;5.17;70.53;103184.16;5223031;28;20034;-84
2022/01/25 16:39:23;;;;;;;72.88;49.28;;;;;;;5.13;70.62;103193.84;5225073;28;20026;-78
2022/01/25 16:41:54;;;;;;;73.65;49.45;;;;;;;5.10;70.29;103190.63;5239714;28;20095;-78
2022/01/25 16:44:26;;;;;;;74.55;50.75;;;;;;;5.13;70.24;103188.34;5240378;28;20033;-79
2022/01/25 16:46:57;;;;;;;75.32;52.40;;;;;;;5.14;70.04;103195.56;5224033;28;20076;-77
2022/01/25 16:49:28;;;;;;;73.88;50.65;;;;;;;5.08;69.97;103192.72;5240719;28;20032;-77
2022/01/25 16:52:03;;;;;;;78.28;50.55;;;;;;;5.23;70.60;103185.25;5243757;28;20068;-77
2022/01/25 16:54:34;;;;;;;78.50;52.00;;;;;;;5.12;70.65;103194.06;5244831;28;20076;-78
2022/01/25 16:57:06;;;;;;;75.75;50.83;;;;;;;5.02;70.33;103191.63;5228826;28;20042;-78
2022/01/25 16:59:38;;;;;;;78.22;51.30;;;;;;;4.87;70.63;103188.91;5227680;28;20041;-79
2022/01/25 17:02:13;;;;;;;73.35;51.10;;;;;;;4.96;69.80;103186.88;5245264;28;20025;-81
2022/01/25 17:04:44;;;;;;;75.28;49.55;;;;;;;4.88;70.35;103176.00;5241308;28;20071;-78
2022/01/25 17:07:16;;;;;;;73.95;49.65;;;;;;;4.99;70.55;103170.00;5223747;28;20456;-81
2022/01/25 17:09:48;;;;;;;71.85;49.97;;;;;;;4.96;70.58;103173.13;5227774;28;20056;-82
2022/01/25 17:12:19;;;;;;;76.35;54.35;;;;;;;4.92;70.41;103178.19;5225464;28;20026;-82
2022/01/25 17:14:51;;;;;;;73.97;50.67;;;;;;;4.86;71.31;103180.84;5223989;28;20045;-82
2022/01/25 17:17:22;;;;;;;79.65;51.63;;;;;;;4.86;70.92;103183.59;5223848;28;20330;-81
2022/01/25 17:19:54;;;;;;;74.45;50.35;;;;;;;4.90;70.96;103180.25;5224440;28;20026;-73
2022/01/25 17:22:25;;;;;;;70.45;49.65;;;;;;;4.98;70.26;103176.53;5224311;28;20026;-82
2022/01/25 17:24:56;;;;;;;78.70;51.05;;;;;;;5.09;70.69;103181.53;5223523;28;20026;-81
2022/01/25 17:27:27;;;;;;;76.75;51.35;;;;;;;5.06;70.91;103183.81;5222712;28;20029;-81
2022/01/25 17:29:59;;;;;;;75.47;50.35;;;;;;;5.07;70.42;103180.03;5230571;28;20152;-80
